Time;durP1;ratioP1;P1;durP2;ratioP2;P2;SDS_P1;SDS_P2;PMS_P1;PMS_P2;Temp;Humidity;BMP_temperature;BMP_pressure;BME280_temperature;BME280_humidity;BME280_pressure;Samples;Min_cycle;Max_cycle;Signal;HPM_P1;HPM_P2
2022/02/07 00:01:00;;;;;;;3.65;1.90;;;9.60;99.90;;;;;;4954768;28;20039;-87
2022/02/07 00:04:03;;;;;;;3.83;2.10;;;9.70;99.90;;;;;;4955382;28;20472;-86
2022/02/07 00:06:19;;;;;;;2.65;1.67;;;9.20;99.90;;;;;;4953527;28;20553;-86
2022/02/07 00:08:46;;;;;;;2.85;1.30;;;9.20;99.90;;;;;;4954915;28;20034;-86
2022/02/07 00:11:15;;;;;;;1.60;1.15;;;9.30;99.90;;;;;;4954373;28;20121;-87
2022/02/07 00:13:41;;;;;;;1.88;1.27;;;9.30;99.90;;;;;;4954139;29;20071;-86
2022/02/07 00:16:07;;;;;;;1.77;1.20;;;9.80;99.90;;;;;;4954764;28;20023;-87
2022/02/07 00:18:34;;;;;;;2.97;1.17;;;9.40;99.90;;;;;;4954452;28;20110;-86
2022/02/07 00:20:59;;;;;;;2.97;1.70;;;9.40;99.90;;;;;;4954940;28;20495;-87
2022/02/07 00:23:26;;;;;;;2.63;2.10;;;9.40;99.90;;;;;;4954617;28;20030;-86
2022/02/07 00:25:52;;;;;;;2.78;1.38;;;9.40;99.90;;;;;;4954462;28;20034;-87
2022/02/07 00:28:18;;;;;;;1.52;1.42;;;9.50;99.90;;;;;;4954070;28;20023;-86
2022/02/07 00:30:44;;;;;;;2.63;1.50;;;9.30;99.90;;;;;;4954888;28;20562;-86
2022/02/07 00:33:09;;;;;;;2.33;1.85;;;9.40;99.90;;;;;;4954472;28;20102;-86
2022/02/07 00:35:35;;;;;;;1.67;1.20;;;9.30;99.90;;;;;;4954709;28;20032;-87
2022/02/07 00:38:06;;;;;;;1.63;1.40;;;9.30;99.90;;;;;;4955597;28;20045;-87
2022/02/07 00:40:46;;;;;;;2.03;1.40;;;9.40;99.90;;;;;;4957383;29;20066;-87
2022/02/07 00:43:26;;;;;;;1.63;1.20;;;9.80;99.90;;;;;;4958592;28;20063;-87
2022/02/07 00:45:56;;;;;;;2.55;1.52;;;9.50;99.90;;;;;;4958497;28;20040;-87
2022/02/07 00:48:25;;;;;;;3.50;1.92;;;9.90;99.90;;;;;;4958800;28;20152;-87
2022/02/07 00:50:55;;;;;;;3.28;1.70;;;9.40;99.90;;;;;;4958298;28;20544;-87
2022/02/07 00:53:21;;;;;;;6.10;3.00;;;9.30;99.90;;;;;;4958304;28;20559;-87
2022/02/07 00:55:47;;;;;;;2.45;1.80;;;9.40;99.90;;;;;;4957728;28;20035;-87
2022/02/07 00:58:12;;;;;;;3.17;1.17;;;9.40;99.90;;;;;;4943622;29;20027;-86
2022/02/07 01:00:38;;;;;;;1.52;1.02;;;9.50;99.90;;;;;;4943440;29;20385;-86
2022/02/07 01:03:04;;;;;;;2.13;1.70;;;9.50;99.90;;;;;;4958189;28;20443;-87
2022/02/07 01:05:30;;;;;;;1.65;1.38;;;9.50;99.90;;;;;;4958187;28;20047;-87
2022/02/07 01:07:58;;;;;;;3.00;1.40;;;9.50;99.90;;;;;;4958805;28;20028;-87
2022/02/07 01:10:31;;;;;;;2.05;1.50;;;9.50;99.90;;;;;;4941276;29;20038;-86
2022/02/07 01:13:09;;;;;;;2.28;1.40;;;10.00;99.90;;;;;;4943473;29;20028;-87
2022/02/07 01:15:47;;;;;;;1.55;1.38;;;9.50;99.90;;;;;;4959504;28;20039;-87
2022/02/07 01:23:49;;;;;;;9.68;6.60;;;9.50;99.90;;;;;;4944325;28;20022;-87
2022/02/07 01:55:44;;;;;;;1.90;1.67;;;9.80;99.90;;;;;;4957128;28;20034;-86
2022/02/07 01:58:11;;;;;;;4.15;1.80;;;9.20;99.90;;;;;;4956886;28;20042;-87
2022/02/07 02:00:40;;;;;;;2.22;1.80;;;9.60;99.90;;;;;;4958339;28;20023;-86
2022/02/07 02:03:06;;;;;;;1.70;1.50;;;9.80;99.90;;;;;;4942585;29;20122;-87
2022/02/07 02:05:36;;;;;;;2.17;1.50;;;9.80;99.90;;;;;;4956873;28;20141;-87
2022/02/07 02:08:05;;;;;;;3.22;1.55;;;9.70;99.90;;;;;;4956826;28;20034;-87
2022/02/07 02:10:30;;;;;;;2.53;1.10;;;9.20;99.90;;;;;;4955822;28;20033;-86
2022/02/07 02:13:05;;;;;;;1.98;1.38;;;9.30;99.90;;;;;;4957124;28;20039;-87
2022/02/07 02:37:25;;;;;;;2.10;1.23;;;9.40;99.90;;;;;;4956351;28;20023;-87
2022/02/07 02:45:31;;;;;;;1.25;1.13;;;9.40;99.90;;;;;;4956089;28;20126;-86
2022/02/07 02:48:05;;;;;;;1.27;1.15;;;9.60;99.90;;;;;;4957946;28;20506;-87
2022/02/07 02:50:35;;;;;;;1.23;1.10;;;9.20;99.90;;;;;;4956112;28;20035;-87
2022/02/07 02:53:07;;;;;;;1.75;1.40;;;9.60;99.90;;;;;;4956316;28;20031;-87
2022/02/07 02:55:36;;;;;;;1.40;1.30;;;9.50;99.90;;;;;;4955352;29;20031;-87
2022/02/07 02:58:02;;;;;;;3.38;1.45;;;9.50;99.90;;;;;;4956487;28;20074;-87
2022/02/07 03:00:29;;;;;;;2.00;1.70;;;9.40;99.90;;;;;;4956036;28;20029;-87
2022/02/07 03:02:55;;;;;;;1.67;1.50;;;9.30;99.90;;;;;;4955548;28;20127;-87
2022/02/07 03:05:20;;;;;;;2.60;1.70;;;9.60;99.90;;;;;;4955622;28;20106;-87
2022/02/07 03:07:47;;;;;;;1.95;1.48;;;9.40;99.90;;;;;;4955633;28;20082;-87
2022/02/07 03:13:13;;;;;;;2.13;1.75;;;9.40;99.90;;;;;;4934773;29;20061;-86
2022/02/07 03:18:24;;;;;;;2.35;1.73;;;9.10;99.90;;;;;;4956358;28;20107;-86
2022/02/07 03:20:50;;;;;;;1.73;1.50;;;8.80;99.90;;;;;;4955280;28;20126;-87
2022/02/07 03:23:17;;;;;;;2.47;1.70;;;9.00;99.90;;;;;;4955768;28;20517;-86
2022/02/07 03:25:43;;;;;;;2.15;1.65;;;9.40;99.90;;;;;;4954921;28;20027;-86
2022/02/07 03:28:08;;;;;;;2.25;1.60;;;9.10;99.90;;;;;;4955064;28;20414;-86
2022/02/07 03:30:35;;;;;;;3.03;1.95;;;9.10;99.90;;;;;;4955779;28;20034;-86
2022/02/07 03:33:01;;;;;;;1.83;1.65;;;9.10;99.90;;;;;;4940694;29;20039;-87
2022/02/07 03:35:27;;;;;;;2.22;1.90;;;9.10;99.90;;;;;;4954879;28;20503;-87
2022/02/07 03:37:52;;;;;;;3.83;1.98;;;9.20;99.90;;;;;;4955546;28;20028;-87
2022/02/07 03:40:18;;;;;;;2.45;2.17;;;9.10;99.90;;;;;;4954800;28;20027;-86
2022/02/07 03:42:44;;;;;;;2.47;2.00;;;9.30;99.90;;;;;;4940445;29;20031;-86
2022/02/07 03:45:10;;;;;;;2.63;1.75;;;9.20;99.90;;;;;;4956833;28;20066;-87
2022/02/07 03:47:36;;;;;;;2.55;1.92;;;9.30;99.90;;;;;;4955172;28;20031;-87
2022/02/07 03:50:03;;;;;;;2.33;1.73;;;9.40;99.90;;;;;;4954808;28;20039;-86
2022/02/07 03:52:29;;;;;;;3.50;2.22;;;9.20;99.90;;;;;;4954413;28;20106;-87
2022/02/07 03:54:55;;;;;;;3.05;2.22;;;9.20;99.90;;;;;;4955367;28;20122;-86
2022/02/07 03:57:21;;;;;;;3.55;2.35;;;9.70;99.90;;;;;;4954986;28;20027;-86
2022/02/07 03:59:47;;;;;;;2.67;2.30;;;9.10;99.90;;;;;;4954680;28;20020;-85
2022/02/07 04:02:12;;;;;;;4.05;1.88;;;9.60;99.90;;;;;;4954839;28;20031;-86
2022/02/07 04:04:40;;;;;;;2.33;2.00;;;9.00;99.90;;;;;;4954066;29;20070;-87
2022/02/07 04:07:07;;;;;;;3.50;1.92;;;8.90;99.90;;;;;;4940152;29;20035;-86
2022/02/07 04:09:38;;;;;;;3.13;1.92;;;9.00;99.90;;;;;;4954792;28;20039;-86
2022/02/07 04:12:11;;;;;;;4.00;2.10;;;9.20;99.90;;;;;;4940093;29;20043;-87
2022/02/07 04:14:36;;;;;;;4.15;2.20;;;9.00;99.90;;;;;;4955103;28;20491;-86
2022/02/07 04:17:03;;;;;;;3.03;1.98;;;9.10;99.90;;;;;;4937371;28;20037;-87
2022/02/07 04:19:34;;;;;;;2.13;1.90;;;9.20;99.90;;;;;;4954239;29;20054;-86
2022/02/07 04:22:01;;;;;;;2.83;1.90;;;9.20;99.90;;;;;;4940308;29;20023;-86
2022/02/07 04:24:28;;;;;;;2.40;1.90;;;9.10;99.90;;;;;;4954510;28;20031;-87
2022/02/07 04:26:53;;;;;;;2.20;2.00;;;9.40;99.90;;;;;;4957576;28;20456;-87
2022/02/07 04:29:19;;;;;;;2.58;2.03;;;9.60;99.90;;;;;;4954792;28;20066;-86
2022/02/07 04:31:45;;;;;;;2.38;2.10;;;9.20;99.90;;;;;;4953661;28;20031;-87
2022/02/07 04:34:10;;;;;;;3.28;2.22;;;9.20;99.90;;;;;;4939781;29;20091;-86
2022/02/07 04:36:38;;;;;;;5.45;2.30;;;8.90;99.90;;;;;;4954675;28;20492;-87
2022/02/07 04:39:03;;;;;;;3.35;2.03;;;8.70;99.90;;;;;;4954882;28;20027;-86
2022/02/07 04:41:29;;;;;;;4.63;2.10;;;9.20;99.90;;;;;;4954601;28;20057;-86
2022/02/07 04:44:00;;;;;;;2.58;2.25;;;9.60;99.90;;;;;;4954333;28;20411;-86
2022/02/07 04:57:13;;;;;;;2.13;1.67;;;9.60;99.90;;;;;;4954508;28;20393;-87
2022/02/07 05:04:42;;;;;;;1.98;1.35;;;9.30;99.90;;;;;;4953769;29;20031;-87
2022/02/07 05:15:20;;;;;;;3.05;1.00;;;9.20;99.90;;;;;;4953827;28;20030;-86
2022/02/07 05:17:46;;;;;;;2.15;0.85;;;9.20;99.90;;;;;;4954418;28;20043;-86
2022/02/07 05:20:12;;;;;;;3.70;1.20;;;9.20;99.90;;;;;;4954074;28;20047;-85
2022/02/07 05:22:38;;;;;;;1.98;1.10;;;9.20;99.90;;;;;;4949743;29;20031;-86
2022/02/07 05:25:05;;;;;;;1.50;0.90;;;9.20;99.90;;;;;;4954885;28;20043;-86
2022/02/07 05:27:30;;;;;;;4.15;0.95;;;9.20;99.90;;;;;;4943562;29;20035;-86
2022/02/07 05:29:56;;;;;;;1.80;0.90;;;9.30;99.90;;;;;;4942827;29;20035;-86
2022/02/07 05:32:22;;;;;;;2.00;1.00;;;9.40;99.90;;;;;;4957739;28;20023;-86
2022/02/07 05:34:48;;;;;;;0.82;0.73;;;9.60;99.90;;;;;;4957704;28;20114;-86
2022/02/07 05:37:15;;;;;;;1.10;0.73;;;9.50;99.90;;;;;;4956540;28;20106;-86
2022/02/07 05:39:44;;;;;;;1.45;0.80;;;9.40;99.90;;;;;;4957413;28;20507;-86
2022/02/07 05:42:10;;;;;;;4.15;1.08;;;9.60;99.90;;;;;;4957441;28;20118;-86
2022/02/07 05:44:38;;;;;;;3.50;1.00;;;9.60;99.90;;;;;;4957360;28;20136;-86
2022/02/07 05:47:05;;;;;;;1.40;0.80;;;9.40;99.90;;;;;;4940365;28;20027;-86
2022/02/07 05:49:30;;;;;;;3.90;0.98;;;9.10;99.90;;;;;;4956645;29;20027;-87
2022/02/07 05:51:56;;;;;;;3.08;0.80;;;9.00;99.90;;;;;;4957543;28;20031;-88
2022/02/07 05:54:23;;;;;;;3.15;0.70;;;8.70;99.90;;;;;;4942573;29;20078;-87
2022/02/07 05:56:49;;;;;;;2.17;0.80;;;8.50;99.90;;;;;;4957377;28;20455;-87
2022/02/07 05:59:14;;;;;;;2.92;0.80;;;8.30;99.90;;;;;;4956768;28;20046;-86
2022/02/07 06:01:40;;;;;;;4.40;1.00;;;8.80;99.90;;;;;;4956679;29;20059;-87
2022/02/07 06:04:05;;;;;;;2.85;0.80;;;8.20;99.90;;;;;;4957170;28;20035;-85
2022/02/07 06:06:31;;;;;;;3.58;1.00;;;8.10;99.90;;;;;;4957371;28;20045;-87
2022/02/07 06:08:57;;;;;;;4.35;0.70;;;8.10;99.90;;;;;;4956977;28;20090;-87
2022/02/07 06:11:23;;;;;;;3.78;1.10;;;8.10;99.90;;;;;;4956931;28;20043;-85
2022/02/07 06:13:48;;;;;;;3.58;0.90;;;8.10;99.90;;;;;;4956101;28;20063;-87
2022/02/07 06:16:17;;;;;;;2.20;0.65;;;8.20;99.90;;;;;;4956817;28;20428;-87
2022/02/07 06:18:44;;;;;;;2.85;1.00;;;8.20;99.90;;;;;;4956571;28;20022;-87
2022/02/07 06:21:13;;;;;;;3.45;1.38;;;8.10;99.90;;;;;;4941994;29;20061;-87
2022/02/07 06:23:39;;;;;;;3.83;1.20;;;8.50;99.90;;;;;;4956788;28;20023;-88
2022/02/07 06:26:04;;;;;;;3.53;1.10;;;8.10;99.90;;;;;;4956904;28;20065;-87
2022/02/07 06:28:30;;;;;;;4.72;1.38;;;8.60;99.90;;;;;;4955561;29;20028;-87
2022/02/07 06:30:56;;;;;;;5.72;1.50;;;8.20;99.90;;;;;;4957009;28;20575;-87
2022/02/07 06:33:22;;;;;;;4.53;1.20;;;8.20;99.90;;;;;;4956539;28;20036;-87
2022/02/07 06:35:48;;;;;;;6.43;1.30;;;8.50;99.90;;;;;;4941598;29;20086;-87
2022/02/07 06:38:13;;;;;;;5.60;1.40;;;8.20;99.90;;;;;;4958419;28;20039;-90
2022/02/07 06:40:39;;;;;;;4.22;1.98;;;8.60;99.90;;;;;;4938395;29;20038;-90
2022/02/07 06:43:04;;;;;;;6.82;2.42;;;8.10;99.90;;;;;;4943157;29;20037;-95
2022/02/07 06:45:31;;;;;;;2.97;1.63;;;8.60;99.90;;;;;;4944062;29;20111;-92
2022/02/07 06:47:57;;;;;;;3.78;2.13;;;8.10;99.90;;;;;;4959506;28;20035;-94
2022/02/07 06:50:22;;;;;;;5.75;2.30;;;8.00;99.90;;;;;;4941448;29;20487;-92
2022/02/07 06:52:48;;;;;;;6.20;2.15;;;7.80;99.90;;;;;;4940155;28;20023;-92
2022/02/07 06:55:13;;;;;;;6.30;1.92;;;7.70;99.90;;;;;;4958005;28;20038;-92
2022/02/07 06:57:39;;;;;;;5.57;1.23;;;7.50;99.90;;;;;;4942953;29;20035;-92
2022/02/07 07:00:10;;;;;;;4.82;1.88;;;7.50;99.90;;;;;;4942334;29;20483;-89
2022/02/07 07:02:36;;;;;;;4.88;1.90;;;7.30;99.90;;;;;;4957418;28;20019;-91
2022/02/07 07:05:09;;;;;;;3.17;1.20;;;7.30;99.90;;;;;;4957431;28;20113;-93
2022/02/07 07:07:35;;;;;;;5.03;1.10;;;7.50;99.90;;;;;;4956437;29;20028;-92
2022/02/07 07:10:01;;;;;;;5.10;2.10;;;7.70;99.90;;;;;;4941728;29;20395;-92
2022/02/07 07:12:29;;;;;;;5.07;1.83;;;7.70;99.90;;;;;;4942666;29;20030;-91
2022/02/07 07:15:12;;;;;;;6.53;1.80;;;7.70;99.90;;;;;;4956287;28;20043;-91
2022/02/07 07:17:38;;;;;;;9.30;2.30;;;7.40;99.90;;;;;;4958507;28;20050;-91
2022/02/07 07:20:05;;;;;;;4.00;1.63;;;7.80;99.90;;;;;;4939361;28;20059;-90
2022/02/07 07:22:32;;;;;;;5.85;1.98;;;7.30;99.90;;;;;;4955520;29;20023;-91
2022/02/07 07:24:59;;;;;;;6.18;1.73;;;8.00;99.90;;;;;;4941472;29;20063;-90
2022/02/07 07:27:28;;;;;;;4.80;1.83;;;7.70;99.90;;;;;;4956360;28;20030;-91
2022/02/07 07:29:55;;;;;;;6.93;2.00;;;7.40;99.90;;;;;;4941282;29;20082;-91
2022/02/07 07:32:24;;;;;;;4.82;2.03;;;7.50;99.90;;;;;;4948750;28;20373;-91
2022/02/07 07:34:50;;;;;;;4.18;1.60;;;7.70;99.90;;;;;;4953824;28;20043;-93
2022/02/07 07:37:16;;;;;;;4.43;1.58;;;7.60;99.90;;;;;;4956130;28;20504;-90
2022/02/07 07:39:42;;;;;;;6.57;1.33;;;7.70;99.90;;;;;;4956275;28;20039;-90
2022/02/07 07:42:08;;;;;;;6.10;1.30;;;7.60;99.90;;;;;;4940885;29;20031;-89
2022/02/07 07:44:36;;;;;;;4.53;1.10;;;7.70;99.90;;;;;;4956028;28;20036;-91
2022/02/07 07:47:12;;;;;;;3.50;1.00;;;7.90;99.90;;;;;;4956793;28;20063;-91
2022/02/07 07:50:03;;;;;;;5.10;1.42;;;8.10;99.90;;;;;;4951817;29;20030;-93
2022/02/07 07:52:45;;;;;;;2.92;1.08;;;8.10;99.90;;;;;;4957150;28;20567;-94
2022/02/07 08:03:08;;;;;;;5.30;1.63;;;9.30;99.90;;;;;;4956429;28;20086;-93
2022/02/07 08:05:47;;;;;;;6.82;1.67;;;9.40;99.90;;;;;;4956266;28;20043;-92
2022/02/07 08:08:31;;;;;;;5.68;1.67;;;11.30;99.90;;;;;;4955731;28;20027;-83
2022/02/07 08:11:07;;;;;;;5.07;1.23;;;13.60;99.90;;;;;;4953950;28;20495;-86
2022/02/07 08:13:33;;;;;;;3.67;1.02;;;14.20;99.90;;;;;;4953806;29;20027;-89
2022/02/07 08:15:59;;;;;;;5.93;1.40;;;11.60;99.90;;;;;;4954669;28;20027;-83
2022/02/07 08:18:26;;;;;;;10.52;3.75;;;10.60;99.90;;;;;;4953968;28;20075;-89
2022/02/07 08:20:52;;;;;;;8.27;2.53;;;9.60;99.90;;;;;;4954285;28;20043;-85
2022/02/07 08:23:17;;;;;;;3.45;1.60;;;9.80;99.90;;;;;;4954788;28;20408;-83
2022/02/07 08:25:43;;;;;;;3.58;1.50;;;10.50;99.90;;;;;;4953277;28;20079;-83
2022/02/07 08:28:09;;;;;;;3.90;1.17;;;14.40;99.90;;;;;;4954425;28;20097;-85
2022/02/07 08:30:35;;;;;;;6.43;1.40;;;19.30;99.90;;;;;;4939873;29;20514;-88
2022/02/07 08:33:03;;;;;;;4.47;1.40;;;21.40;99.90;;;;;;4954465;28;20042;-89
2022/02/07 08:35:29;;;;;;;4.88;1.88;;;23.50;99.90;;;;;;4938820;29;20094;-85
2022/02/07 08:37:56;;;;;;;3.13;1.17;;;20.90;99.90;;;;;;4954101;28;20031;-86
2022/02/07 08:40:23;;;;;;;4.63;1.38;;;17.50;99.90;;;;;;4952045;29;20515;-86
2022/02/07 08:42:49;;;;;;;4.88;1.42;;;13.50;99.90;;;;;;4954740;28;20043;-85
2022/02/07 08:45:15;;;;;;;6.18;1.65;;;11.70;99.90;;;;;;4954460;28;20063;-85
2022/02/07 08:47:42;;;;;;;3.60;1.25;;;11.00;99.90;;;;;;4954225;28;20460;-85
2022/02/07 08:50:09;;;;;;;6.05;1.20;;;10.70;99.90;;;;;;4954134;28;20098;-85
2022/02/07 08:52:35;;;;;;;4.03;1.10;;;13.40;99.90;;;;;;4953370;29;20074;-84
2022/02/07 08:55:02;;;;;;;2.92;1.30;;;17.90;99.90;;;;;;4954145;28;20488;-85
2022/02/07 08:57:36;;;;;;;3.55;1.42;;;21.30;99.90;;;;;;4954090;28;20034;-85
2022/02/07 09:08:07;;;;;;;3.45;1.25;;;14.30;99.90;;;;;;4957328;28;20510;-88
2022/02/07 09:10:33;;;;;;;3.25;1.20;;;19.60;99.90;;;;;;4955944;29;20059;-82
2022/02/07 09:12:59;;;;;;;5.47;2.22;;;23.40;99.90;;;;;;4957720;28;20023;-84
2022/02/07 09:15:38;;;;;;;6.50;1.80;;;24.90;99.90;;;;;;4957941;28;20488;-84
2022/02/07 09:18:07;;;;;;;3.60;1.92;;;25.90;99.90;;;;;;4957612;28;20452;-84
2022/02/07 09:20:43;;;;;;;2.97;1.65;;;26.40;99.90;;;;;;4957394;28;21814;-84
2022/02/07 09:23:09;;;;;;;3.38;1.80;;;26.50;99.90;;;;;;4957402;28;20548;-85
2022/02/07 09:25:35;;;;;;;3.70;1.58;;;27.70;99.90;;;;;;4957244;28;20419;-84
2022/02/07 09:28:01;;;;;;;3.92;1.58;;;28.30;99.90;;;;;;4957404;28;20031;-85
2022/02/07 09:30:27;;;;;;;3.75;1.67;;;27.70;99.90;;;;;;4957471;28;20027;-83
2022/02/07 09:32:53;;;;;;;2.90;1.50;;;28.60;99.90;;;;;;4957237;28;20028;-84
2022/02/07 09:35:19;;;;;;;2.95;1.30;;;27.30;99.90;;;;;;4957555;28;20432;-85
2022/02/07 09:37:45;;;;;;;4.40;1.45;;;26.40;99.90;;;;;;4956384;28;20035;-85
2022/02/07 09:40:12;;;;;;;2.47;1.35;;;28.70;99.90;;;;;;4956946;28;20031;-85
2022/02/07 09:42:43;;;;;;;2.40;1.30;;;30.70;99.90;;;;;;4957675;28;20036;-84
2022/02/07 09:45:19;;;;;;;2.67;1.30;;;29.60;99.90;;;;;;4957020;28;20050;-85
2022/02/07 09:47:48;;;;;;;3.80;1.40;;;23.40;99.90;;;;;;4957018;28;20027;-84
2022/02/07 09:50:13;;;;;;;2.85;1.30;;;19.30;99.90;;;;;;4941437;28;20035;-84
2022/02/07 09:52:39;;;;;;;3.33;1.40;;;17.50;99.90;;;;;;4956304;29;20027;-84
2022/02/07 09:55:08;;;;;;;2.58;1.15;;;21.10;99.90;;;;;;4956593;28;20469;-84
2022/02/07 09:57:34;;;;;;;3.42;1.23;;;25.40;99.90;;;;;;4957208;28;20105;-85
2022/02/07 10:00:05;;;;;;;2.45;1.33;;;27.00;99.90;;;;;;4956851;28;20082;-85
2022/02/07 10:02:43;;;;;;;3.85;1.40;;;28.30;99.90;;;;;;4956710;28;20039;-84
2022/02/07 10:05:22;;;;;;;3.10;1.40;;;28.30;99.90;;;;;;4956742;28;20177;-85
2022/02/07 10:10:35;;;;;;;3.38;1.33;;;27.60;99.90;;;;;;4957334;28;20031;-84
2022/02/07 10:15:54;;;;;;;2.78;1.42;;;29.30;99.90;;;;;;4956845;28;20466;-85
2022/02/07 10:43:20;;;;;;;4.07;1.30;;;33.10;99.90;;;;;;4922606;29;20432;-86
2022/02/07 10:45:49;;;;;;;2.88;1.33;;;26.00;99.90;;;;;;4922350;29;20048;-86
2022/02/07 10:48:28;;;;;;;2.70;1.33;;;25.70;99.90;;;;;;4922293;29;20035;-84
2022/02/07 10:51:18;;;;;;;4.60;1.27;;;28.30;99.90;;;;;;4921772;29;20126;-85
2022/02/07 10:53:50;;;;;;;3.63;1.60;;;29.70;99.90;;;;;;4922666;29;20039;-84
2022/02/07 10:56:18;;;;;;;2.92;1.33;;;29.10;99.90;;;;;;4904119;29;20422;-85
2022/02/07 10:58:45;;;;;;;4.05;1.40;;;28.20;99.90;;;;;;4917772;29;20442;-85
2022/02/07 11:01:25;;;;;;;4.13;1.67;;;27.40;99.90;;;;;;4915259;29;20059;-86
2022/02/07 11:03:58;;;;;;;6.43;2.03;;;27.50;99.90;;;;;;4921745;29;20187;-85
2022/02/07 11:06:34;;;;;;;3.38;1.25;;;27.70;99.90;;;;;;4922110;29;20032;-84
2022/02/07 11:14:24;;;;;;;5.85;1.75;;;28.00;99.90;;;;;;4917424;29;20028;-86
2022/02/07 11:17:19;;;;;;;7.18;3.95;;;27.20;99.90;;;;;;4952864;28;20131;-86
2022/02/07 11:25:41;;;;;;;4.72;1.98;;;27.60;99.90;;;;;;4955676;28;20047;-86
2022/02/07 11:28:27;;;;;;;4.63;2.13;;;29.60;99.90;;;;;;4954921;28;20488;-86
2022/02/07 11:30:58;;;;;;;3.92;1.73;;;30.00;99.90;;;;;;4955320;28;20094;-85
2022/02/07 11:33:33;;;;;;;4.57;1.98;;;29.30;99.90;;;;;;4954484;28;20027;-85
2022/02/07 11:35:59;;;;;;;4.25;2.20;;;30.70;99.90;;;;;;4955084;28;20027;-86
2022/02/07 11:38:25;;;;;;;4.53;2.20;;;31.40;99.90;;;;;;4955323;28;20123;-85
2022/02/07 11:41:04;;;;;;;3.50;1.90;;;30.20;99.90;;;;;;4954395;28;20478;-85
2022/02/07 11:43:31;;;;;;;2.97;1.70;;;30.10;99.90;;;;;;4953958;29;20036;-85
2022/02/07 11:46:05;;;;;;;4.18;2.85;;;27.90;99.90;;;;;;4954623;28;20031;-87
2022/02/07 11:48:32;;;;;;;3.70;1.75;;;29.60;99.90;;;;;;4954859;28;20023;-86
2022/02/07 11:51:02;;;;;;;3.42;2.15;;;28.50;99.90;;;;;;4955076;28;20031;-85
2022/02/07 11:53:43;;;;;;;5.90;2.20;;;27.60;99.90;;;;;;4955093;28;20047;-85
2022/02/07 11:56:19;;;;;;;5.07;2.00;;;29.20;99.90;;;;;;4955202;28;20028;-86
2022/02/07 11:58:52;;;;;;;5.93;2.33;;;30.90;99.90;;;;;;4947545;28;20562;-86
2022/02/07 12:01:56;;;;;;;7.38;4.57;;;30.00;99.90;;;;;;4954443;28;20118;-85
2022/02/07 12:04:45;;;;;;;6.18;4.28;;;31.10;99.90;;;;;;4955440;28;20555;-87
2022/02/07 12:07:11;;;;;;;4.25;2.05;;;30.30;99.90;;;;;;4953976;28;20046;-85
2022/02/07 12:10:13;;;;;;;4.35;2.10;;;30.30;99.90;;;;;;4955127;28;20034;-85
2022/02/07 12:12:51;;;;;;;4.10;1.80;;;30.60;99.90;;;;;;4952804;28;20145;-86
2022/02/07 12:15:27;;;;;;;6.80;1.85;;;28.30;99.90;;;;;;4952964;28;20027;-86
2022/02/07 12:17:58;;;;;;;5.47;2.00;;;28.00;99.90;;;;;;4953716;28;20058;-86
2022/02/07 12:20:30;;;;;;;3.75;1.50;;;29.30;99.90;;;;;;4954259;28;20047;-86
2022/02/07 12:23:21;;;;;;;3.17;1.67;;;28.50;99.90;;;;;;4954253;28;20023;-85
2022/02/07 12:25:59;;;;;;;5.43;1.80;;;29.10;99.90;;;;;;4949641;28;20395;-89
2022/02/07 12:28:40;;;;;;;5.07;1.85;;;29.90;99.90;;;;;;4951665;29;20444;-87
2022/02/07 12:33:39;;;;;;;5.38;3.95;;;29.40;99.90;;;;;;4954217;28;20082;-85
2022/02/07 12:36:07;;;;;;;3.90;2.50;;;29.90;99.90;;;;;;4954073;28;20500;-87
2022/02/07 12:38:40;;;;;;;4.55;1.40;;;29.40;99.90;;;;;;4954648;28;20151;-83
2022/02/07 12:41:09;;;;;;;3.35;1.20;;;29.00;99.90;;;;;;4954356;28;20031;-89
2022/02/07 12:43:38;;;;;;;3.03;1.40;;;28.30;99.90;;;;;;4953402;28;20036;-86
2022/02/07 12:46:06;;;;;;;3.20;1.77;;;28.20;99.90;;;;;;4953817;28;20122;-85
2022/02/07 12:48:35;;;;;;;5.25;1.85;;;28.00;99.90;;;;;;4954121;28;20035;-85
2022/02/07 12:51:01;;;;;;;4.28;1.65;;;29.30;99.90;;;;;;4954399;28;20038;-85
2022/02/07 12:53:28;;;;;;;2.85;1.33;;;29.30;99.90;;;;;;4954204;28;20035;-84
2022/02/07 12:55:58;;;;;;;4.22;1.50;;;28.40;99.90;;;;;;4953628;28;20035;-84
2022/02/07 12:58:25;;;;;;;3.60;1.60;;;27.30;99.90;;;;;;4950714;29;20027;-84
2022/02/07 13:00:52;;;;;;;2.80;1.40;;;27.90;99.90;;;;;;4953627;28;20555;-84
2022/02/07 13:03:18;;;;;;;3.75;1.60;;;24.30;99.90;;;;;;4953753;28;20023;-84
2022/02/07 13:05:46;;;;;;;2.58;1.50;;;25.10;99.90;;;;;;4953740;28;20400;-84
2022/02/07 13:08:16;;;;;;;4.03;1.77;;;25.80;99.90;;;;;;4938881;28;20031;-84
2022/02/07 13:10:51;;;;;;;4.30;1.70;;;25.50;99.90;;;;;;4949292;29;20043;-84
2022/02/07 13:13:29;;;;;;;5.55;1.77;;;24.00;99.90;;;;;;4954304;28;20046;-84
2022/02/07 13:15:58;;;;;;;4.57;1.55;;;25.30;99.90;;;;;;4954080;28;20042;-84
2022/02/07 13:18:28;;;;;;;4.35;1.90;;;25.70;99.90;;;;;;4954047;28;20458;-84
2022/02/07 13:20:54;;;;;;;3.58;1.63;;;25.80;99.90;;;;;;4953833;28;20499;-84
2022/02/07 13:23:20;;;;;;;4.60;1.70;;;25.90;99.90;;;;;;4953740;28;20032;-84
2022/02/07 13:25:51;;;;;;;3.67;1.80;;;25.00;99.90;;;;;;4953063;28;20043;-84
2022/02/07 13:28:22;;;;;;;4.32;1.60;;;25.90;99.90;;;;;;4953954;28;20027;-84
2022/02/07 13:30:54;;;;;;;3.83;1.40;;;25.30;99.90;;;;;;4953559;28;20510;-82
2022/02/07 13:33:20;;;;;;;3.33;1.50;;;24.80;99.90;;;;;;4953632;28;20019;-82
2022/02/07 13:35:49;;;;;;;5.00;1.73;;;24.90;99.90;;;;;;4953851;28;20037;-82
2022/02/07 13:38:17;;;;;;;3.03;1.42;;;24.00;99.90;;;;;;4939048;28;20538;-82
2022/02/07 13:40:48;;;;;;;3.42;1.35;;;22.90;99.90;;;;;;4953091;29;20038;-81
2022/02/07 13:43:29;;;;;;;4.25;1.58;;;19.80;99.90;;;;;;4953411;28;20027;-81
2022/02/07 13:46:02;;;;;;;3.55;1.40;;;21.30;99.90;;;;;;4953751;28;20498;-82
2022/02/07 13:48:29;;;;;;;4.70;1.65;;;21.90;99.90;;;;;;4957242;28;20030;-81
2022/02/07 13:50:57;;;;;;;3.17;1.60;;;22.80;99.90;;;;;;4956804;28;20043;-81
2022/02/07 13:53:24;;;;;;;4.47;2.08;;;22.30;99.90;;;;;;4957324;28;20038;-81
2022/02/07 13:55:53;;;;;;;3.92;1.95;;;22.40;99.90;;;;;;4956472;28;20051;-81
2022/02/07 13:58:32;;;;;;;2.80;1.80;;;23.00;99.90;;;;;;4956772;28;20035;-82
2022/02/07 14:01:00;;;;;;;4.50;1.70;;;22.90;99.90;;;;;;4956842;28;20019;-83
2022/02/07 14:03:33;;;;;;;3.15;1.48;;;22.20;99.90;;;;;;4953674;28;20125;-85
2022/02/07 14:06:06;;;;;;;4.30;1.80;;;22.20;99.90;;;;;;4956047;28;20050;-85
2022/02/07 14:08:39;;;;;;;4.47;1.58;;;22.10;99.90;;;;;;4956708;28;20074;-85
2022/02/07 14:11:07;;;;;;;2.85;1.58;;;22.40;99.90;;;;;;4956427;28;20553;-84
2022/02/07 14:13:35;;;;;;;3.72;1.95;;;22.00;99.90;;;;;;4952831;29;20028;-85
2022/02/07 14:16:02;;;;;;;8.27;2.00;;;21.90;99.90;;;;;;4953730;28;20090;-85
2022/02/07 14:18:30;;;;;;;3.65;1.60;;;22.20;99.90;;;;;;4949619;28;20031;-84
2022/02/07 14:20:56;;;;;;;4.70;1.63;;;21.70;99.90;;;;;;4947193;28;20039;-85
2022/02/07 14:23:22;;;;;;;4.75;1.80;;;21.50;99.90;;;;;;4956582;28;20507;-84
2022/02/07 14:25:53;;;;;;;3.60;1.52;;;21.10;99.90;;;;;;4939224;28;20118;-84
2022/02/07 14:28:19;;;;;;;4.40;1.42;;;21.30;99.90;;;;;;4955552;28;20028;-84
2022/02/07 14:30:45;;;;;;;2.38;1.35;;;20.50;99.90;;;;;;4956546;28;20399;-84
2022/02/07 14:33:11;;;;;;;2.45;1.40;;;20.60;99.90;;;;;;4956728;28;20500;-84
2022/02/07 14:35:37;;;;;;;3.67;1.55;;;20.60;99.90;;;;;;4956330;28;20030;-84
2022/02/07 14:38:05;;;;;;;2.97;1.60;;;21.50;99.90;;;;;;4956328;28;20118;-85
2022/02/07 14:40:33;;;;;;;5.65;1.60;;;21.40;99.90;;;;;;4955422;29;20062;-85
2022/02/07 14:43:01;;;;;;;3.55;1.50;;;21.00;99.90;;;;;;4955887;28;20033;-85
2022/02/07 14:45:32;;;;;;;4.22;1.30;;;21.80;99.90;;;;;;4956188;28;20035;-84
2022/02/07 14:48:01;;;;;;;3.58;1.67;;;20.70;99.90;;;;;;4956044;28;20035;-84
2022/02/07 14:50:28;;;;;;;3.92;1.75;;;20.90;99.90;;;;;;4955783;28;20031;-85
2022/02/07 14:52:54;;;;;;;4.03;1.33;;;20.80;99.90;;;;;;4955399;28;20031;-85
2022/02/07 14:55:22;;;;;;;4.60;1.42;;;20.30;99.90;;;;;;4955173;28;20483;-85
2022/02/07 14:57:49;;;;;;;4.28;1.67;;;20.40;99.90;;;;;;4955497;28;20381;-86
2022/02/07 15:00:22;;;;;;;3.65;1.50;;;20.10;99.90;;;;;;4955568;28;20417;-86
2022/02/07 15:02:49;;;;;;;3.80;1.40;;;19.80;99.90;;;;;;4955473;28;20023;-85
2022/02/07 15:05:16;;;;;;;6.45;2.00;;;19.40;99.90;;;;;;4955359;28;20107;-85
2022/02/07 15:07:41;;;;;;;3.42;1.42;;;19.60;99.90;;;;;;4955412;29;20027;-84
2022/02/07 15:10:09;;;;;;;4.07;1.55;;;20.30;99.90;;;;;;4955153;28;20404;-85
2022/02/07 15:12:35;;;;;;;3.65;1.73;;;20.00;99.90;;;;;;4941035;29;20553;-86
2022/02/07 15:15:01;;;;;;;3.53;1.33;;;19.30;99.90;;;;;;4955894;28;20126;-86
2022/02/07 15:17:28;;;;;;;3.63;1.50;;;19.40;99.90;;;;;;4955406;28;20404;-86
2022/02/07 15:19:55;;;;;;;2.50;1.27;;;18.60;99.90;;;;;;4954778;28;20055;-86
2022/02/07 15:22:21;;;;;;;4.82;1.52;;;18.10;99.90;;;;;;4954985;28;20038;-86
2022/02/07 15:24:47;;;;;;;4.78;1.65;;;18.30;99.90;;;;;;4954929;28;20925;-85
2022/02/07 15:27:13;;;;;;;3.35;1.30;;;18.10;99.90;;;;;;4955428;28;20114;-85
2022/02/07 15:29:39;;;;;;;3.35;1.50;;;17.80;99.90;;;;;;4954433;28;20110;-85
2022/02/07 15:32:26;;;;;;;4.40;1.33;;;17.70;99.90;;;;;;4955174;28;20063;-85
2022/02/07 15:34:54;;;;;;;5.30;1.30;;;18.00;99.90;;;;;;4952362;28;20126;-85